sensor_id;sensor_type;location;lat;lon;timestamp;pressure;altitude;pressure_sealevel;temperature;humidity
64933;BME280;51446;53.850;10.662;2024-01-15T00:02:01;99041.56;;;0.66;100.00
64933;BME280;51446;53.850;10.662;2024-01-15T00:04:28;99037.25;;;0.65;100.00
64933;BME280;51446;53.850;10.662;2024-01-15T00:06:53;99027.66;;;0.61;100.00
64933;BME280;51446;53.850;10.662;2024-01-15T00:09:18;99013.97;;;0.63;100.00
64933;BME280;51446;53.850;10.662;2024-01-15T00:11:43;99014.22;;;0.73;100.00
64933;BME280;51446;53.850;10.662;2024-01-15T00:14:09;99002.19;;;0.73;100.00
64933;BME280;51446;53.850;10.662;2024-01-15T00:16:34;98995.38;;;0.75;100.00
64933;BME280;51446;53.850;10.662;2024-01-15T00:19:00;99008.47;;;0.83;100.00
64933;BME280;51446;53.850;10.662;2024-01-15T00:21:25;99003.47;;;0.89;100.00
64933;BME280;51446;53.850;10.662;2024-01-15T00:23:50;99010.69;;;1.02;100.00
64933;BME280;51446;53.850;10.662;2024-01-15T00:26:16;99001.19;;;1.01;100.00
64933;BME280;51446;53.850;10.662;2024-01-15T00:28:41;99000.34;;;1.01;100.00
64933;BME280;51446;53.850;10.662;2024-01-15T00:31:06;98992.63;;;1.02;100.00
64933;BME280;51446;53.850;10.662;2024-01-15T00:33:32;98995.09;;;0.99;100.00
64933;BME280;51446;53.850;10.662;2024-01-15T00:35:57;98973.63;;;1.00;100.00
64933;BME280;51446;53.850;10.662;2024-01-15T00:38:23;98963.38;;;1.03;100.00
64933;BME280;51446;53.850;10.662;2024-01-15T00:40:48;98958.28;;;1.07;100.00
64933;BME280;51446;53.850;10.662;2024-01-15T00:43:14;98947.03;;;1.03;100.00
64933;BME280;51446;53.850;10.662;2024-01-15T00:45:39;98942.09;;;1.12;100.00
64933;BME280;51446;53.850;10.662;2024-01-15T00:48:05;98918.88;;;1.14;100.00
64933;BME280;51446;53.850;10.662;2024-01-15T00:50:30;98934.44;;;1.15;100.00
64933;BME280;51446;53.850;10.662;2024-01-15T00:52:55;98921.44;;;1.12;100.00
64933;BME280;51446;53.850;10.662;2024-01-15T00:55:21;98916.41;;;1.17;100.00
64933;BME280;51446;53.850;10.662;2024-01-15T00:57:46;98916.69;;;1.31;100.00
64933;BME280;51446;53.850;10.662;2024-01-15T01:00:12;98906.22;;;1.23;100.00
64933;BME280;51446;53.850;10.662;2024-01-15T01:02:37;98916.56;;;1.25;100.00
64933;BME280;51446;53.850;10.662;2024-01-15T01:05:03;98910.22;;;1.10;100.00
64933;BME280;51446;53.850;10.662;2024-01-15T01:07:28;98909.34;;;1.10;100.00
64933;BME280;51446;53.850;10.662;2024-01-15T01:09:55;98911.59;;;0.96;100.00
64933;BME280;51446;53.850;10.662;2024-01-15T01:12:20;98921.84;;;0.93;100.00
64933;BME280;51446;53.850;10.662;2024-01-15T01:14:46;98923.44;;;0.88;100.00
64933;BME280;51446;53.850;10.662;2024-01-15T01:17:11;98922.50;;;0.84;100.00
64933;BME280;51446;53.850;10.662;2024-01-15T01:19:36;98904.88;;;0.67;100.00
64933;BME280;51446;53.850;10.662;2024-01-15T01:22:02;98919.25;;;0.58;100.00
64933;BME280;51446;53.850;10.662;2024-01-15T01:24:27;98890.72;;;0.51;100.00
64933;BME280;51446;53.850;10.662;2024-01-15T01:26:52;98904.25;;;0.43;100.00
64933;BME280;51446;53.850;10.662;2024-01-15T01:29:18;98899.09;;;0.43;100.00
64933;BME280;51446;53.850;10.662;2024-01-15T01:31:44;98933.44;;;0.42;100.00
64933;BME280;51446;53.850;10.662;2024-01-15T01:34:10;98913.69;;;0.42;100.00
64933;BME280;51446;53.850;10.662;2024-01-15T01:36:35;98917.03;;;0.38;100.00
64933;BME280;51446;53.850;10.662;2024-01-15T01:39:00;98910.41;;;0.48;100.00
64933;BME280;51446;53.850;10.662;2024-01-15T01:41:25;98907.72;;;0.43;100.00
64933;BME280;51446;53.850;10.662;2024-01-15T01:43:51;98899.19;;;0.47;100.00
64933;BME280;51446;53.850;10.662;2024-01-15T01:46:16;98905.28;;;0.49;100.00
64933;BME280;51446;53.850;10.662;2024-01-15T01:48:41;98907.19;;;0.57;100.00
64933;BME280;51446;53.850;10.662;2024-01-15T01:51:07;98896.84;;;0.55;100.00
64933;BME280;51446;53.850;10.662;2024-01-15T01:53:34;98896.81;;;0.54;100.00
64933;BME280;51446;53.850;10.662;2024-01-15T01:56:02;98893.47;;;0.58;100.00
64933;BME280;51446;53.850;10.662;2024-01-15T01:58:28;98895.19;;;0.59;100.00
64933;BME280;51446;53.850;10.662;2024-01-15T02:00:54;98897.06;;;0.64;100.00
64933;BME280;51446;53.850;10.662;2024-01-15T02:03:20;98891.56;;;0.50;100.00
64933;BME280;51446;53.850;10.662;2024-01-15T02:05:47;98890.97;;;0.61;100.00
64933;BME280;51446;53.850;10.662;2024-01-15T02:08:14;98888.47;;;0.64;100.00
64933;BME280;51446;53.850;10.662;2024-01-15T02:10:39;98893.63;;;0.64;100.00
64933;BME280;51446;53.850;10.662;2024-01-15T02:13:05;98887.69;;;0.68;100.00
64933;BME280;51446;53.850;10.662;2024-01-15T02:15:30;98887.81;;;0.73;100.00
64933;BME280;51446;53.850;10.662;2024-01-15T02:18:03;98892.16;;;0.74;100.00
64933;BME280;51446;53.850;10.662;2024-01-15T02:20:29;98891.53;;;0.84;100.00
64933;BME280;51446;53.850;10.662;2024-01-15T02:23:13;98881.91;;;0.77;100.00
64933;BME280;51446;53.850;10.662;2024-01-15T02:25:43;98885.44;;;0.82;100.00
64933;BME280;51446;53.850;10.662;2024-01-15T02:28:14;98880.09;;;0.74;100.00
64933;BME280;51446;53.850;10.662;2024-01-15T02:30:40;98883.63;;;0.78;100.00
64933;BME280;51446;53.850;10.662;2024-01-15T02:33:07;98876.63;;;0.72;100.00
64933;BME280;51446;53.850;10.662;2024-01-15T02:35:33;98884.38;;;0.72;100.00
64933;BME280;51446;53.850;10.662;2024-01-15T02:37:58;98881.66;;;0.67;100.00
64933;BME280;51446;53.850;10.662;2024-01-15T02:40:24;98873.13;;;0.70;100.00
64933;BME280;51446;53.850;10.662;2024-01-15T02:42:49;98867.88;;;0.67;100.00
64933;BME280;51446;53.850;10.662;2024-01-15T02:45:15;98870.56;;;0.72;100.00
64933;BME280;51446;53.850;10.662;2024-01-15T02:47:40;98876.63;;;0.72;100.00
64933;BME280;51446;53.850;10.662;2024-01-15T02:50:06;98868.09;;;0.76;100.00
64933;BME280;51446;53.850;10.662;2024-01-15T02:52:31;98861.16;;;0.72;100.00
64933;BME280;51446;53.850;10.662;2024-01-15T02:54:57;98861.28;;;0.78;100.00
64933;BME280;51446;53.850;10.662;2024-01-15T02:57:22;98861.25;;;0.77;100.00
64933;BME280;51446;53.850;10.662;2024-01-15T02:59:47;98854.34;;;0.76;100.00
64933;BME280;51446;53.850;10.662;2024-01-15T03:02:12;98863.84;;;0.77;100.00
64933;BME280;51446;53.850;10.662;2024-01-15T03:04:43;98850.22;;;0.82;100.00
64933;BME280;51446;53.850;10.662;2024-01-15T03:07:08;98861.28;;;0.78;100.00
64933;BME280;51446;53.850;10.662;2024-01-15T03:09:33;98853.75;;;0.88;100.00
64933;BME280;51446;53.850;10.662;2024-01-15T03:11:58;98854.84;;;0.97;100.00
64933;BME280;51446;53.850;10.662;2024-01-15T03:14:24;98856.63;;;1.00;100.00
64933;BME280;51446;53.850;10.662;2024-01-15T03:16:51;98861.69;;;0.95;100.00
64933;BME280;51446;53.850;10.662;2024-01-15T03:19:16;98858.22;;;0.95;100.00
64933;BME280;51446;53.850;10.662;2024-01-15T03:21:41;98855.69;;;0.96;100.00
64933;BME280;51446;53.850;10.662;2024-01-15T03:24:07;98852.38;;;1.02;100.00
64933;BME280;51446;53.850;10.662;2024-01-15T03:26:32;98851.44;;;0.98;100.00
64933;BME280;51446;53.850;10.662;2024-01-15T03:28:57;98863.34;;;0.93;100.00
64933;BME280;51446;53.850;10.662;2024-01-15T03:31:22;98864.97;;;0.88;100.00
64933;BME280;51446;53.850;10.662;2024-01-15T03:33:48;98871.03;;;0.90;100.00
64933;BME280;51446;53.850;10.662;2024-01-15T03:36:13;98875.53;;;0.99;100.00
64933;BME280;51446;53.850;10.662;2024-01-15T03:38:41;98867.69;;;0.94;100.00
64933;BME280;51446;53.850;10.662;2024-01-15T03:41:06;98875.19;;;0.85;100.00
64933;BME280;51446;53.850;10.662;2024-01-15T03:43:32;98874.59;;;0.95;100.00
64933;BME280;51446;53.850;10.662;2024-01-15T03:45:57;98882.47;;;1.01;100.00
64933;BME280;51446;53.850;10.662;2024-01-15T03:48:22;98883.56;;;1.11;100.00
64933;BME280;51446;53.850;10.662;2024-01-15T03:50:48;98895.72;;;1.15;100.00
64933;BME280;51446;53.850;10.662;2024-01-15T03:53:13;98892.13;;;1.10;100.00
64933;BME280;51446;53.850;10.662;2024-01-15T03:55:38;98881.63;;;1.01;100.00
64933;BME280;51446;53.850;10.662;2024-01-15T03:58:03;98892.00;;;1.04;100.00
64933;BME280;51446;53.850;10.662;2024-01-15T04:00:29;98899.63;;;0.99;100.00
64933;BME280;51446;53.850;10.662;2024-01-15T04:02:54;98900.66;;;1.06;100.00
64933;BME280;51446;53.850;10.662;2024-01-15T04:05:19;98896.56;;;1.16;100.00
64933;BME280;51446;53.850;10.662;2024-01-15T04:07:45;98903.28;;;1.09;100.00
64933;BME280;51446;53.850;10.662;2024-01-15T04:10:10;98898.03;;;1.04;100.00
64933;BME280;51446;53.850;10.662;2024-01-15T04:12:35;98894.59;;;1.04;100.00
64933;BME280;51446;53.850;10.662;2024-01-15T04:15:01;98911.63;;;0.97;100.00
64933;BME280;51446;53.850;10.662;2024-01-15T04:17:26;98908.13;;;0.94;100.00
64933;BME280;51446;53.850;10.662;2024-01-15T04:19:52;98916.72;;;0.94;100.00
64933;BME280;51446;53.850;10.662;2024-01-15T04:22:17;98914.81;;;0.87;100.00
64933;BME280;51446;53.850;10.662;2024-01-15T04:24:42;98913.28;;;0.94;100.00
64933;BME280;51446;53.850;10.662;2024-01-15T04:27:07;98918.25;;;0.88;100.00
64933;BME280;51446;53.850;10.662;2024-01-15T04:29:33;98918.19;;;0.84;100.00
64933;BME280;51446;53.850;10.662;2024-01-15T04:31:58;98913.09;;;0.88;100.00
64933;BME280;51446;53.850;10.662;2024-01-15T04:34:23;98918.16;;;0.83;100.00
64933;BME280;51446;53.850;10.662;2024-01-15T04:36:49;98915.38;;;0.74;100.00
64933;BME280;51446;53.850;10.662;2024-01-15T04:39:14;98918.22;;;0.86;100.00
64933;BME280;51446;53.850;10.662;2024-01-15T04:41:39;98922.59;;;0.89;100.00
64933;BME280;51446;53.850;10.662;2024-01-15T04:44:04;98924.34;;;0.90;100.00
64933;BME280;51446;53.850;10.662;2024-01-15T04:46:30;98916.72;;;0.94;100.00
64933;BME280;51446;53.850;10.662;2024-01-15T04:48:55;98910.72;;;0.95;100.00
64933;BME280;51446;53.850;10.662;2024-01-15T04:51:20;98911.63;;;0.97;100.00
64933;BME280;51446;53.850;10.662;2024-01-15T04:53:46;98920.06;;;0.90;100.00
64933;BME280;51446;53.850;10.662;2024-01-15T04:56:11;98920.09;;;0.92;100.00
64933;BME280;51446;53.850;10.662;2024-01-15T04:58:36;98920.13;;;0.93;100.00
64933;BME280;51446;53.850;10.662;2024-01-15T05:01:01;98919.50;;;1.03;100.00
64933;BME280;51446;53.850;10.662;2024-01-15T05:03:27;98922.13;;;1.05;100.00
64933;BME280;51446;53.850;10.662;2024-01-15T05:05:52;98920.44;;;1.06;100.00
64933;BME280;51446;53.850;10.662;2024-01-15T05:08:18;98920.41;;;1.04;100.00
64933;BME280;51446;53.850;10.662;2024-01-15T05:10:43;98916.03;;;1.01;100.00
64933;BME280;51446;53.850;10.662;2024-01-15T05:13:08;98913.41;;;1.00;100.00
64933;BME280;51446;53.850;10.662;2024-01-15T05:15:33;98916.69;;;0.93;100.00
64933;BME280;51446;53.850;10.662;2024-01-15T05:17:59;98912.22;;;0.85;100.00
64933;BME280;51446;53.850;10.662;2024-01-15T05:20:24;98924.59;;;1.00;100.00
64933;BME280;51446;53.850;10.662;2024-01-15T05:22:49;98922.03;;;1.00;100.00
64933;BME280;51446;53.850;10.662;2024-01-15T05:25:15;98928.06;;;1.01;100.00
64933;BME280;51446;53.850;10.662;2024-01-15T05:27:40;98928.31;;;1.12;100.00
64933;BME280;51446;53.850;10.662;2024-01-15T05:30:05;98935.19;;;1.11;100.00
64933;BME280;51446;53.850;10.662;2024-01-15T05:32:31;98930.03;;;1.11;100.00
64933;BME280;51446;53.850;10.662;2024-01-15T05:34:57;98930.25;;;1.20;100.00
64933;BME280;51446;53.850;10.662;2024-01-15T05:37:22;98932.69;;;1.14;100.00
64933;BME280;51446;53.850;10.662;2024-01-15T05:39:47;98930.13;;;1.16;100.00
64933;BME280;51446;53.850;10.662;2024-01-15T05:42:13;98931.19;;;1.24;100.00
64933;BME280;51446;53.850;10.662;2024-01-15T05:44:38;98927.06;;;1.32;100.00
64933;BME280;51446;53.850;10.662;2024-01-15T05:47:03;98934.06;;;1.38;100.00
64933;BME280;51446;53.850;10.662;2024-01-15T05:49:29;98928.16;;;1.42;100.00
64933;BME280;51446;53.850;10.662;2024-01-15T05:51:55;98930.53;;;1.33;100.00
64933;BME280;51446;53.850;10.662;2024-01-15T05:54:20;98924.69;;;1.40;100.00
64933;BME280;51446;53.850;10.662;2024-01-15T05:56:45;98926.16;;;1.30;100.00
64933;BME280;51446;53.850;10.662;2024-01-15T05:59:11;98921.91;;;1.32;100.00
64933;BME280;51446;53.850;10.662;2024-01-15T06:01:36;98930.63;;;1.37;100.00
64933;BME280;51446;53.850;10.662;2024-01-15T06:04:01;98926.50;;;1.44;100.00
64933;BME280;51446;53.850;10.662;2024-01-15T06:06:27;98937.81;;;1.51;100.00
64933;BME280;51446;53.850;10.662;2024-01-15T06:08:52;98934.97;;;1.38;100.00
64933;BME280;51446;53.850;10.662;2024-01-15T06:11:18;98940.41;;;1.51;100.00
64933;BME280;51446;53.850;10.662;2024-01-15T06:13:43;98941.81;;;1.38;100.00
64933;BME280;51446;53.850;10.662;2024-01-15T06:16:14;98937.53;;;1.37;100.00
64933;BME280;51446;53.850;10.662;2024-01-15T06:18:40;98950.47;;;1.38;100.00
64933;BME280;51446;53.850;10.662;2024-01-15T06:21:05;98939.28;;;1.39;100.00
64933;BME280;51446;53.850;10.662;2024-01-15T06:23:30;98927.72;;;1.24;100.00
64933;BME280;51446;53.850;10.662;2024-01-15T06:25:55;98947.56;;;1.25;100.00
64933;BME280;51446;53.850;10.662;2024-01-15T06:28:21;98949.28;;;1.24;100.00
64933;BME280;51446;53.850;10.662;2024-01-15T06:30:46;98948.53;;;1.30;100.00
64933;BME280;51446;53.850;10.662;2024-01-15T06:33:11;98951.97;;;1.29;100.00
64933;BME280;51446;53.850;10.662;2024-01-15T06:35:36;98955.22;;;1.21;100.00
64933;BME280;51446;53.850;10.662;2024-01-15T06:38:02;98950.13;;;1.25;100.00
64933;BME280;51446;53.850;10.662;2024-01-15T06:40:27;98950.81;;;1.17;100.00
64933;BME280;51446;53.850;10.662;2024-01-15T06:42:53;98951.88;;;1.26;100.00
64933;BME280;51446;53.850;10.662;2024-01-15T06:45:18;98954.31;;;1.19;100.00
64933;BME280;51446;53.850;10.662;2024-01-15T06:47:43;98960.34;;;1.20;100.00
64933;BME280;51446;53.850;10.662;2024-01-15T06:50:09;98962.16;;;1.23;100.00
64933;BME280;51446;53.850;10.662;2024-01-15T06:52:34;98957.56;;;1.12;100.00
64933;BME280;51446;53.850;10.662;2024-01-15T06:54:59;98963.59;;;1.11;100.00
64933;BME280;51446;53.850;10.662;2024-01-15T06:57:25;98965.28;;;1.11;100.00
64933;BME280;51446;53.850;10.662;2024-01-15T06:59:50;98964.38;;;1.09;100.00
64933;BME280;51446;53.850;10.662;2024-01-15T07:02:15;98971.13;;;1.03;100.00
64933;BME280;51446;53.850;10.662;2024-01-15T07:04:41;98971.81;;;0.96;100.00
64933;BME280;51446;53.850;10.662;2024-01-15T07:07:06;98983.88;;;0.97;100.00
64933;BME280;51446;53.850;10.662;2024-01-15T07:09:31;98985.66;;;0.98;100.00
64933;BME280;51446;53.850;10.662;2024-01-15T07:11:56;98989.13;;;1.00;100.00
64933;BME280;51446;53.850;10.662;2024-01-15T07:14:23;98993.34;;;0.97;100.00
64933;BME280;51446;53.850;10.662;2024-01-15T07:16:48;98998.50;;;0.97;100.00
64933;BME280;51446;53.850;10.662;2024-01-15T07:19:13;98988.13;;;0.94;100.00
64933;BME280;51446;53.850;10.662;2024-01-15T07:21:39;98995.09;;;0.99;100.00
64933;BME280;51446;53.850;10.662;2024-01-15T07:24:05;98991.41;;;0.88;100.00
64933;BME280;51446;53.850;10.662;2024-01-15T07:26:30;98992.75;;;1.07;100.00
64933;BME280;51446;53.850;10.662;2024-01-15T07:28:56;99003.91;;;1.06;100.00
64933;BME280;51446;53.850;10.662;2024-01-15T07:31:21;98999.66;;;1.08;100.00
64933;BME280;51446;53.850;10.662;2024-01-15T07:33:47;99005.78;;;1.13;100.00
64933;BME280;51446;53.850;10.662;2024-01-15T07:36:12;98999.94;;;1.20;100.00
64933;BME280;51446;53.850;10.662;2024-01-15T07:38:37;99005.88;;;1.16;100.00
64933;BME280;51446;53.850;10.662;2024-01-15T07:41:03;98999.91;;;1.19;100.00
64933;BME280;51446;53.850;10.662;2024-01-15T07:43:29;98995.88;;;1.30;100.00
64933;BME280;51446;53.850;10.662;2024-01-15T07:45:54;99006.34;;;1.36;100.00
64933;BME280;51446;53.850;10.662;2024-01-15T07:48:19;99008.97;;;1.38;100.00
64933;BME280;51446;53.850;10.662;2024-01-15T07:50:45;99009.91;;;1.40;100.00
64933;BME280;51446;53.850;10.662;2024-01-15T07:53:10;99013.38;;;1.42;100.00
64933;BME280;51446;53.850;10.662;2024-01-15T07:55:36;99018.69;;;1.48;100.00
64933;BME280;51446;53.850;10.662;2024-01-15T07:58:01;99023.06;;;1.51;100.00
64933;BME280;51446;53.850;10.662;2024-01-15T08:00:27;99015.00;;;1.37;100.00
64933;BME280;51446;53.850;10.662;2024-01-15T08:02:52;99016.00;;;1.44;100.00
64933;BME280;51446;53.850;10.662;2024-01-15T08:05:18;99018.38;;;1.34;100.00
64933;BME280;51446;53.850;10.662;2024-01-15T08:07:44;99014.72;;;1.26;100.00
64933;BME280;51446;53.850;10.662;2024-01-15T08:10:09;99020.16;;;1.37;100.00
64933;BME280;51446;53.850;10.662;2024-01-15T08:12:34;99022.81;;;1.40;100.00
64933;BME280;51446;53.850;10.662;2024-01-15T08:15:00;99016.31;;;1.56;100.00
64933;BME280;51446;53.850;10.662;2024-01-15T08:17:25;99022.97;;;1.84;100.00
64933;BME280;51446;53.850;10.662;2024-01-15T08:19:54;99011.28;;;2.00;100.00
64933;BME280;51446;53.850;10.662;2024-01-15T08:22:19;99014.94;;;2.54;100.00
64933;BME280;51446;53.850;10.662;2024-01-15T08:24:44;99017.47;;;2.97;100.00
64933;BME280;51446;53.850;10.662;2024-01-15T08:27:10;99009.91;;;3.09;100.00
64933;BME280;51446;53.850;10.662;2024-01-15T08:29:36;99021.41;;;2.76;100.00
64933;BME280;51446;53.850;10.662;2024-01-15T08:32:01;99009.19;;;3.18;100.00
64933;BME280;51446;53.850;10.662;2024-01-15T08:34:26;99020.97;;;3.01;100.00
64933;BME280;51446;53.850;10.662;2024-01-15T08:36:52;99025.97;;;2.90;100.00
64933;BME280;51446;53.850;10.662;2024-01-15T08:39:17;99029.25;;;2.80;100.00
64933;BME280;51446;53.850;10.662;2024-01-15T08:41:44;99038.19;;;2.97;100.00
64933;BME280;51446;53.850;10.662;2024-01-15T08:44:09;99029.69;;;3.04;100.00
64933;BME280;51446;53.850;10.662;2024-01-15T08:46:35;99040.53;;;2.85;100.00
64933;BME280;51446;53.850;10.662;2024-01-15T08:49:00;99047.06;;;2.23;100.00
64933;BME280;51446;53.850;10.662;2024-01-15T08:51:27;99057.00;;;2.04;100.00
64933;BME280;51446;53.850;10.662;2024-01-15T08:53:52;99056.81;;;1.95;100.00
64933;BME280;51446;53.850;10.662;2024-01-15T08:56:17;99062.53;;;1.80;100.00
64933;BME280;51446;53.850;10.662;2024-01-15T08:58:42;99060.03;;;1.85;100.00
64933;BME280;51446;53.850;10.662;2024-01-15T09:01:08;99069.34;;;1.78;100.00
64933;BME280;51446;53.850;10.662;2024-01-15T09:03:33;99074.13;;;1.63;100.00
64933;BME280;51446;53.850;10.662;2024-01-15T09:05:59;99078.03;;;1.80;100.00
64933;BME280;51446;53.850;10.662;2024-01-15T09:08:25;99083.91;;;1.75;100.00
64933;BME280;51446;53.850;10.662;2024-01-15T09:10:51;99081.44;;;1.79;100.00
64933;BME280;51446;53.850;10.662;2024-01-15T09:13:16;99090.25;;;1.87;100.00
64933;BME280;51446;53.850;10.662;2024-01-15T09:15:42;99098.03;;;1.89;100.00
64933;BME280;51446;53.850;10.662;2024-01-15T09:18:07;99088.56;;;1.89;100.00
64933;BME280;51446;53.850;10.662;2024-01-15T09:20:33;99106.16;;;2.06;100.00
64933;BME280;51446;53.850;10.662;2024-01-15T09:22:58;99122.50;;;2.03;100.00
64933;BME280;51446;53.850;10.662;2024-01-15T09:25:23;99113.31;;;2.16;100.00
64933;BME280;51446;53.850;10.662;2024-01-15T09:27:49;99127.84;;;2.11;100.00
64933;BME280;51446;53.850;10.662;2024-01-15T09:30:14;99125.81;;;1.98;100.00
64933;BME280;51446;53.850;10.662;2024-01-15T09:32:39;99139.50;;;1.94;100.00
64933;BME280;51446;53.850;10.662;2024-01-15T09:35:05;99145.00;;;1.72;100.00
64933;BME280;51446;53.850;10.662;2024-01-15T09:37:31;99141.66;;;1.77;100.00
64933;BME280;51446;53.850;10.662;2024-01-15T09:39:56;99146.94;;;1.81;100.00
64933;BME280;51446;53.850;10.662;2024-01-15T09:42:24;99150.53;;;1.86;100.00
64933;BME280;51446;53.850;10.662;2024-01-15T09:44:50;99152.19;;;1.84;100.00
64933;BME280;51446;53.850;10.662;2024-01-15T09:47:17;99155.38;;;2.09;100.00
64933;BME280;51446;53.850;10.662;2024-01-15T09:49:43;99157.09;;;1.73;100.00
64933;BME280;51446;53.850;10.662;2024-01-15T09:52:10;99166.22;;;2.31;100.00
64933;BME280;51446;53.850;10.662;2024-01-15T09:54:36;99165.78;;;2.50;100.00
64933;BME280;51446;53.850;10.662;2024-01-15T09:57:03;99168.44;;;2.53;100.00
64933;BME280;51446;53.850;10.662;2024-01-15T09:59:28;99163.94;;;2.45;100.00
64933;BME280;51446;53.850;10.662;2024-01-15T10:01:55;99171.88;;;2.14;100.00
64933;BME280;51446;53.850;10.662;2024-01-15T10:04:22;99174.66;;;1.87;100.00
64933;BME280;51446;53.850;10.662;2024-01-15T10:06:51;99164.00;;;2.10;100.00
64933;BME280;51446;53.850;10.662;2024-01-15T10:09:17;99167.44;;;2.08;100.00
64933;BME280;51446;53.850;10.662;2024-01-15T10:11:43;99181.06;;;1.68;100.00
64933;BME280;51446;53.850;10.662;2024-01-15T10:14:09;99178.41;;;2.00;100.00
64933;BME280;51446;53.850;10.662;2024-01-15T10:16:37;99172.66;;;1.75;100.00
64933;BME280;51446;53.850;10.662;2024-01-15T10:19:02;99172.78;;;1.81;100.00
64933;BME280;51446;53.850;10.662;2024-01-15T10:21:28;99193.19;;;2.04;100.00
64933;BME280;51446;53.850;10.662;2024-01-15T10:23:53;99184.25;;;1.91;100.00
64933;BME280;51446;53.850;10.662;2024-01-15T10:26:24;99183.69;;;1.69;100.00
64933;BME280;51446;53.850;10.662;2024-01-15T10:28:50;99196.09;;;1.83;100.00
64933;BME280;51446;53.850;10.662;2024-01-15T10:31:16;99202.56;;;1.67;100.00
64933;BME280;51446;53.850;10.662;2024-01-15T10:33:44;99209.16;;;1.87;100.00
64933;BME280;51446;53.850;10.662;2024-01-15T10:36:09;99211.47;;;1.78;100.00
64933;BME280;51446;53.850;10.662;2024-01-15T10:38:36;99208.38;;;1.58;100.00
64933;BME280;51446;53.850;10.662;2024-01-15T10:41:01;99201.88;;;1.72;100.00
64933;BME280;51446;53.850;10.662;2024-01-15T10:43:27;99223.00;;;2.26;100.00
64933;BME280;51446;53.850;10.662;2024-01-15T10:45:52;99221.13;;;2.55;100.00
64933;BME280;51446;53.850;10.662;2024-01-15T10:48:19;99225.34;;;2.52;100.00
64933;BME280;51446;53.850;10.662;2024-01-15T10:50:48;99228.88;;;2.95;100.00
64933;BME280;51446;53.850;10.662;2024-01-15T10:53:15;99234.75;;;2.48;100.00
64933;BME280;51446;53.850;10.662;2024-01-15T10:55:42;99237.44;;;2.53;100.00
64933;BME280;51446;53.850;10.662;2024-01-15T10:58:08;99238.78;;;2.37;100.00
64933;BME280;51446;53.850;10.662;2024-01-15T11:00:35;99239.88;;;1.77;100.00
64933;BME280;51446;53.850;10.662;2024-01-15T11:03:01;99233.94;;;1.47;100.00
64933;BME280;51446;53.850;10.662;2024-01-15T11:05:27;99237.00;;;1.34;100.00
64933;BME280;51446;53.850;10.662;2024-01-15T11:07:58;99238.47;;;1.24;100.00
64933;BME280;51446;53.850;10.662;2024-01-15T11:10:47;99237.88;;;1.34;100.00
64933;BME280;51446;53.850;10.662;2024-01-15T11:16:06;99242.94;;;1.30;100.00
64933;BME280;51446;53.850;10.662;2024-01-15T11:18:39;99248.56;;;1.16;100.00
64933;BME280;51446;53.850;10.662;2024-01-15T11:32:01;99264.63;;;1.06;100.00
64933;BME280;51446;53.850;10.662;2024-01-15T11:37:18;99266.25;;;1.02;100.00
64933;BME280;51446;53.850;10.662;2024-01-15T11:39:44;99262.75;;;0.73;100.00
64933;BME280;51446;53.850;10.662;2024-01-15T11:42:11;99272.25;;;0.74;100.00
64933;BME280;51446;53.850;10.662;2024-01-15T11:44:37;99273.09;;;0.73;100.00
64933;BME280;51446;53.850;10.662;2024-01-15T11:47:10;99270.84;;;0.84;100.00
64933;BME280;51446;53.850;10.662;2024-01-15T11:50:03;99262.13;;;0.80;100.00
64933;BME280;51446;53.850;10.662;2024-01-15T11:52:35;99262.84;;;0.76;100.00
64933;BME280;51446;53.850;10.662;2024-01-15T11:55:17;99266.78;;;0.92;100.00
64933;BME280;51446;53.850;10.662;2024-01-15T11:57:50;99270.84;;;0.84;100.00
64933;BME280;51446;53.850;10.662;2024-01-15T12:00:17;99267.66;;;0.93;100.00
64933;BME280;51446;53.850;10.662;2024-01-15T12:02:44;99262.56;;;0.94;100.00
64933;BME280;51446;53.850;10.662;2024-01-15T12:05:11;99274.03;;;0.75;100.00
64933;BME280;51446;53.850;10.662;2024-01-15T12:07:41;99279.84;;;0.97;100.00
64933;BME280;51446;53.850;10.662;2024-01-15T12:10:20;99273.53;;;0.87;100.00
64933;BME280;51446;53.850;10.662;2024-01-15T12:12:57;99272.34;;;1.06;100.00
64933;BME280;51446;53.850;10.662;2024-01-15T12:15:24;99274.72;;;0.98;100.00
64933;BME280;51446;53.850;10.662;2024-01-15T12:17:50;99277.28;;;0.69;100.00
64933;BME280;51446;53.850;10.662;2024-01-15T12:20:17;99286.44;;;0.60;100.00
64933;BME280;51446;53.850;10.662;2024-01-15T12:22:42;99298.66;;;0.65;100.00
64933;BME280;51446;53.850;10.662;2024-01-15T12:25:08;99294.75;;;0.78;100.00
64933;BME280;51446;53.850;10.662;2024-01-15T12:27:34;99299.66;;;0.71;100.00
64933;BME280;51446;53.850;10.662;2024-01-15T12:30:00;99307.84;;;0.57;100.00
64933;BME280;51446;53.850;10.662;2024-01-15T12:32:25;99307.66;;;0.51;100.00
64933;BME280;51446;53.850;10.662;2024-01-15T12:34:51;99315.03;;;0.40;100.00
64933;BME280;51446;53.850;10.662;2024-01-15T12:37:20;99310.44;;;0.31;100.00
64933;BME280;51446;53.850;10.662;2024-01-15T12:39:46;99315.34;;;0.24;100.00
64933;BME280;51446;53.850;10.662;2024-01-15T12:42:11;99312.72;;;0.22;100.00
64933;BME280;51446;53.850;10.662;2024-01-15T12:44:37;99315.47;;;0.27;100.00
64933;BME280;51446;53.850;10.662;2024-01-15T12:47:06;99322.66;;;0.11;100.00
64933;BME280;51446;53.850;10.662;2024-01-15T12:49:31;99317.03;;;0.22;100.00
64933;BME280;51446;53.850;10.662;2024-01-15T12:51:58;99323.09;;;0.24;100.00
64933;BME280;51446;53.850;10.662;2024-01-15T12:54:23;99322.66;;;0.11;100.00
64933;BME280;51446;53.850;10.662;2024-01-15T12:56:50;99326.19;;;0.13;100.00
64933;BME280;51446;53.850;10.662;2024-01-15T12:59:15;99321.22;;;0.20;100.00
64933;BME280;51446;53.850;10.662;2024-01-15T13:01:40;99320.66;;;0.28;100.00